Time;durP1;ratioP1;P1;durP2;ratioP2;P2;SDS_P1;SDS_P2;PMS_P1;PMS_P2;Temp;Humidity;BMP_temperature;BMP_pressure;BME280_temperature;BME280_humidity;BME280_pressure;Samples;Min_cycle;Max_cycle;Signal;HPM_P1;HPM_P2
2021/10/25 00:02:07;;;;;;;6.43;3.63;;;8.20;99.90;;;;;;5068852;28;20033;-74
2021/10/25 00:04:34;;;;;;;8.88;3.60;;;8.10;99.90;;;;;;5072234;28;20062;-74
2021/10/25 00:06:59;;;;;;;9.50;3.60;;;8.10;99.90;;;;;;5072259;28;20075;-74
2021/10/25 00:09:25;;;;;;;5.28;3.72;;;8.00;99.90;;;;;;5073049;28;20029;-73
2021/10/25 00:11:51;;;;;;;7.28;4.03;;;7.90;99.90;;;;;;5065354;28;20556;-73
2021/10/25 00:14:17;;;;;;;7.10;3.28;;;8.00;99.90;;;;;;5071972;28;20537;-74
2021/10/25 00:16:43;;;;;;;6.20;3.10;;;7.90;99.90;;;;;;5072617;28;20384;-73
2021/10/25 00:19:10;;;;;;;6.10;3.67;;;7.90;99.90;;;;;;5071524;28;20020;-73
2021/10/25 00:21:36;;;;;;;5.97;3.58;;;7.70;99.90;;;;;;5072237;28;20044;-73
2021/10/25 00:24:03;;;;;;;6.32;4.50;;;7.60;99.90;;;;;;5067563;28;22122;-74
2021/10/25 00:26:29;;;;;;;5.70;3.13;;;7.60;99.90;;;;;;5054264;28;20078;-73
2021/10/25 00:28:55;;;;;;;5.97;3.15;;;7.60;99.90;;;;;;5076322;28;20089;-74
2021/10/25 00:31:21;;;;;;;6.97;3.17;;;7.60;99.90;;;;;;5056888;28;20096;-74
2021/10/25 00:33:46;;;;;;;6.65;3.00;;;7.60;99.90;;;;;;5063041;28;20016;-74
2021/10/25 00:36:12;;;;;;;6.00;3.10;;;7.70;99.90;;;;;;5070666;28;20027;-73
2021/10/25 00:38:39;;;;;;;7.20;3.72;;;7.80;99.90;;;;;;5064708;28;20024;-73
2021/10/25 00:41:05;;;;;;;7.18;3.38;;;7.90;99.90;;;;;;5069260;28;20028;-73
2021/10/25 00:43:30;;;;;;;6.95;3.63;;;7.90;99.90;;;;;;5070244;28;20127;-73
2021/10/25 00:45:56;;;;;;;7.60;3.95;;;7.80;99.90;;;;;;5069980;28;20059;-73
2021/10/25 00:48:22;;;;;;;7.25;3.67;;;7.80;99.90;;;;;;5064852;28;20025;-74
2021/10/25 00:50:48;;;;;;;6.53;3.05;;;7.80;99.90;;;;;;5070865;28;20371;-74
2021/10/25 00:53:14;;;;;;;5.60;3.00;;;7.70;99.90;;;;;;5066936;28;20108;-74
2021/10/25 00:55:40;;;;;;;6.15;3.28;;;7.60;99.90;;;;;;5070009;28;20039;-74
2021/10/25 00:58:07;;;;;;;5.25;2.70;;;7.50;99.90;;;;;;5049714;28;20086;-73
2021/10/25 01:00:34;;;;;;;7.60;3.25;;;7.70;99.90;;;;;;5063413;28;20052;-74
2021/10/25 01:03:00;;;;;;;6.85;3.53;;;7.70;99.90;;;;;;5070392;28;20085;-74
2021/10/25 01:05:27;;;;;;;7.03;3.92;;;7.60;99.90;;;;;;5072204;28;20021;-73
2021/10/25 01:07:55;;;;;;;7.78;4.18;;;7.60;99.90;;;;;;5070571;28;20021;-74
2021/10/25 01:10:21;;;;;;;5.70;3.08;;;7.80;99.90;;;;;;5072133;28;20352;-74
2021/10/25 01:12:53;;;;;;;5.90;3.15;;;7.80;99.90;;;;;;5069764;28;20399;-74
2021/10/25 01:15:20;;;;;;;6.55;2.90;;;7.90;99.90;;;;;;5070661;28;20123;-73
2021/10/25 01:17:46;;;;;;;6.25;3.40;;;7.80;99.90;;;;;;5071515;28;20035;-74
2021/10/25 01:20:11;;;;;;;10.20;4.40;;;7.90;99.90;;;;;;5068833;28;20028;-73
2021/10/25 01:22:37;;;;;;;6.95;3.75;;;7.90;99.90;;;;;;5070587;28;20426;-73
2021/10/25 01:25:05;;;;;;;7.78;2.85;;;8.00;99.90;;;;;;5070763;28;20040;-74
2021/10/25 01:27:31;;;;;;;7.25;3.00;;;7.90;99.90;;;;;;5069478;28;20395;-73
2021/10/25 01:29:57;;;;;;;4.90;2.85;;;7.90;99.90;;;;;;5071094;28;20074;-74
2021/10/25 01:32:23;;;;;;;7.88;3.38;;;7.90;99.90;;;;;;5061466;28;20371;-74
2021/10/25 01:34:49;;;;;;;5.95;2.90;;;7.90;99.90;;;;;;5070422;28;20035;-74
2021/10/25 01:37:15;;;;;;;6.88;3.65;;;8.00;99.90;;;;;;5062078;28;20036;-74
2021/10/25 01:39:41;;;;;;;5.20;2.72;;;7.70;99.90;;;;;;5060145;28;20162;-74
2021/10/25 01:42:07;;;;;;;5.97;3.10;;;7.70;99.90;;;;;;5068562;28;20111;-73
2021/10/25 01:44:34;;;;;;;6.05;2.92;;;7.70;99.90;;;;;;5068794;28;20509;-74
2021/10/25 01:47:01;;;;;;;7.05;3.15;;;7.70;99.90;;;;;;5067180;28;20024;-74
2021/10/25 01:49:27;;;;;;;6.30;3.17;;;7.70;99.90;;;;;;5052089;28;20174;-73
2021/10/25 01:51:53;;;;;;;7.43;2.97;;;7.70;99.90;;;;;;5067189;28;20028;-74
2021/10/25 01:54:19;;;;;;;5.10;2.72;;;7.70;99.90;;;;;;5070260;28;20085;-73
2021/10/25 01:56:45;;;;;;;5.38;2.83;;;7.60;99.90;;;;;;5068662;28;20023;-74
2021/10/25 01:59:11;;;;;;;8.07;2.90;;;7.70;99.90;;;;;;5068389;28;20449;-74
2021/10/25 02:01:37;;;;;;;7.57;2.80;;;7.80;99.90;;;;;;5069412;28;20036;-74
2021/10/25 02:04:04;;;;;;;6.03;3.05;;;7.80;99.90;;;;;;5060823;28;20398;-74
2021/10/25 02:06:30;;;;;;;5.40;2.47;;;7.80;99.90;;;;;;5061231;28;20033;-74
2021/10/25 02:08:56;;;;;;;6.75;3.28;;;7.70;99.90;;;;;;5069880;28;20028;-73
2021/10/25 02:11:22;;;;;;;5.03;2.78;;;7.70;99.90;;;;;;5071025;28;20115;-73
2021/10/25 02:13:48;;;;;;;5.10;2.35;;;7.60;99.90;;;;;;5069073;28;20028;-73
2021/10/25 02:16:15;;;;;;;15.73;3.60;;;7.50;99.90;;;;;;5071189;28;20143;-73
2021/10/25 02:18:41;;;;;;;6.25;3.30;;;7.50;99.90;;;;;;5070192;28;20077;-73
2021/10/25 02:21:07;;;;;;;6.82;3.08;;;7.60;99.90;;;;;;5070885;28;20059;-74
2021/10/25 02:23:34;;;;;;;6.50;3.30;;;7.70;99.90;;;;;;5068629;28;20098;-73
2021/10/25 02:26:00;;;;;;;5.70;3.17;;;7.70;99.90;;;;;;5068598;28;20056;-74
2021/10/25 02:28:26;;;;;;;5.03;2.70;;;7.80;99.90;;;;;;5069161;28;20064;-74
2021/10/25 02:30:52;;;;;;;5.70;3.22;;;7.60;99.90;;;;;;5070572;28;20467;-74
2021/10/25 02:33:21;;;;;;;4.47;2.22;;;7.70;99.90;;;;;;5067493;28;20081;-73
2021/10/25 02:35:48;;;;;;;5.47;2.42;;;7.50;99.90;;;;;;5068370;28;20077;-73
2021/10/25 02:38:14;;;;;;;6.25;3.00;;;7.60;99.90;;;;;;5057359;28;20085;-73
2021/10/25 02:40:40;;;;;;;5.85;2.92;;;7.50;99.90;;;;;;5067568;28;20029;-73
2021/10/25 02:43:07;;;;;;;5.90;3.03;;;7.30;99.90;;;;;;5067462;28;20043;-74
2021/10/25 02:45:33;;;;;;;5.30;2.70;;;7.00;99.90;;;;;;5066088;28;20090;-73
2021/10/25 02:47:59;;;;;;;5.60;2.75;;;6.90;99.90;;;;;;5067709;28;20418;-73
2021/10/25 02:50:25;;;;;;;5.63;3.03;;;7.00;99.90;;;;;;5068773;28;20067;-73
2021/10/25 02:52:51;;;;;;;5.07;2.55;;;7.20;99.90;;;;;;5055195;28;20493;-74
2021/10/25 02:55:17;;;;;;;4.43;2.40;;;7.40;99.90;;;;;;5068122;28;20493;-73
2021/10/25 02:57:43;;;;;;;4.65;2.42;;;7.60;99.90;;;;;;5068120;28;20436;-73
2021/10/25 03:00:11;;;;;;;4.88;2.83;;;7.80;99.90;;;;;;5069390;28;20063;-72
2021/10/25 03:02:37;;;;;;;5.20;2.67;;;7.70;99.90;;;;;;5066547;28;20078;-73
2021/10/25 03:05:04;;;;;;;5.82;2.80;;;7.70;99.90;;;;;;5060887;28;20116;-73
2021/10/25 03:07:30;;;;;;;5.78;3.38;;;7.30;99.90;;;;;;5063417;28;20024;-73
2021/10/25 03:09:55;;;;;;;4.30;2.38;;;7.00;99.90;;;;;;5062484;28;20364;-73
2021/10/25 03:12:21;;;;;;;4.53;2.67;;;7.20;99.90;;;;;;5060525;28;20663;-73
2021/10/25 03:14:47;;;;;;;6.20;2.70;;;7.30;99.90;;;;;;5060941;28;20028;-73
2021/10/25 03:17:13;;;;;;;6.30;2.92;;;7.30;99.90;;;;;;5061439;28;20028;-73
2021/10/25 03:19:40;;;;;;;8.85;2.95;;;7.40;99.90;;;;;;5062308;28;20100;-73
2021/10/25 03:22:05;;;;;;;6.65;2.53;;;7.40;99.90;;;;;;5063775;28;20032;-73
2021/10/25 03:24:32;;;;;;;8.80;3.10;;;7.60;99.90;;;;;;5064412;28;20037;-73
2021/10/25 03:27:00;;;;;;;6.53;3.25;;;7.30;99.90;;;;;;5065260;28;20028;-73
2021/10/25 03:29:26;;;;;;;5.63;2.78;;;7.10;99.90;;;;;;5061664;28;20440;-73
2021/10/25 03:31:53;;;;;;;5.68;2.63;;;7.30;99.90;;;;;;5061232;28;20025;-73
2021/10/25 03:34:19;;;;;;;6.88;3.90;;;7.40;99.90;;;;;;5051273;28;20025;-73
2021/10/25 03:36:47;;;;;;;6.43;3.80;;;7.20;99.90;;;;;;5062070;28;20083;-73
2021/10/25 03:39:14;;;;;;;5.10;2.85;;;7.10;99.90;;;;;;5066297;28;20028;-73
2021/10/25 03:41:46;;;;;;;6.25;3.17;;;7.10;99.90;;;;;;5066099;28;20028;-73
2021/10/25 03:44:23;;;;;;;9.82;3.28;;;7.10;99.90;;;;;;5067122;28;20085;-73
2021/10/25 03:51:58;;;;;;;5.97;3.00;;;6.90;99.90;;;;;;5053675;28;20382;-73
2021/10/25 04:00:26;;;;;;;4.95;2.10;;;6.70;99.90;;;;;;5063475;28;20735;-73
2021/10/25 04:30:08;;;;;;;5.35;2.42;;;6.70;99.90;;;;;;5062989;28;20032;-73
2021/10/25 04:32:34;;;;;;;4.93;2.55;;;6.70;99.90;;;;;;5062751;28;20652;-73
2021/10/25 04:35:00;;;;;;;6.38;2.72;;;6.90;99.90;;;;;;5046778;28;20033;-73
2021/10/25 04:37:26;;;;;;;7.85;2.88;;;7.00;99.90;;;;;;5062432;28;20567;-73
2021/10/25 04:39:52;;;;;;;4.53;2.78;;;7.00;99.90;;;;;;5063123;28;20078;-73
2021/10/25 04:42:18;;;;;;;4.90;2.08;;;7.10;99.90;;;;;;5063632;28;20032;-73
2021/10/25 04:44:44;;;;;;;5.85;2.00;;;7.30;99.90;;;;;;5063492;28;20032;-73
2021/10/25 04:47:10;;;;;;;5.25;2.80;;;7.50;99.90;;;;;;5062718;28;20582;-73
2021/10/25 04:49:36;;;;;;;5.07;2.42;;;7.20;99.90;;;;;;5062327;28;20055;-73
2021/10/25 04:52:03;;;;;;;5.53;2.80;;;7.00;99.90;;;;;;5064449;28;20550;-73
2021/10/25 04:54:31;;;;;;;5.50;2.63;;;6.80;99.90;;;;;;5065307;28;20028;-73
2021/10/25 04:56:58;;;;;;;5.00;2.95;;;6.70;99.90;;;;;;5061465;28;20021;-73
2021/10/25 04:59:24;;;;;;;6.13;3.22;;;6.60;99.90;;;;;;5060405;28;20478;-73
2021/10/25 05:01:50;;;;;;;5.88;3.17;;;6.60;99.90;;;;;;5063969;28;20025;-73
2021/10/25 05:04:15;;;;;;;5.80;2.70;;;6.40;99.90;;;;;;5063043;28;20186;-73
2021/10/25 05:06:41;;;;;;;4.38;2.42;;;6.40;99.90;;;;;;5063287;28;20135;-73
2021/10/25 05:09:08;;;;;;;5.18;3.00;;;6.30;99.90;;;;;;5062083;28;20036;-73
2021/10/25 05:11:33;;;;;;;5.00;2.97;;;6.30;99.90;;;;;;5061095;28;20127;-73
2021/10/25 05:13:59;;;;;;;6.30;2.83;;;6.30;99.90;;;;;;5064301;28;20477;-73
2021/10/25 05:16:25;;;;;;;4.97;3.03;;;6.20;99.90;;;;;;5064302;28;20028;-73
2021/10/25 05:18:50;;;;;;;4.55;2.60;;;6.30;99.90;;;;;;5057940;28;20035;-73
2021/10/25 05:21:16;;;;;;;4.78;2.40;;;6.10;99.90;;;;;;5061865;28;20108;-73
2021/10/25 05:23:42;;;;;;;6.28;2.30;;;6.20;99.90;;;;;;5064180;28;20343;-73
2021/10/25 05:26:08;;;;;;;4.82;2.47;;;6.40;99.90;;;;;;5061217;28;20041;-73
2021/10/25 05:28:34;;;;;;;4.90;2.30;;;6.30;99.90;;;;;;5063658;28;20032;-73
2021/10/25 05:31:00;;;;;;;4.07;2.10;;;6.40;99.90;;;;;;5063106;28;20025;-73
2021/10/25 05:33:26;;;;;;;7.57;2.60;;;6.40;99.90;;;;;;5068050;28;20063;-73
2021/10/25 05:35:52;;;;;;;5.93;2.47;;;6.50;99.90;;;;;;5062548;28;20081;-73
2021/10/25 05:38:17;;;;;;;7.32;3.03;;;6.40;99.90;;;;;;5059774;28;20317;-74
2021/10/25 05:40:44;;;;;;;5.93;2.60;;;6.40;99.90;;;;;;5044832;28;20024;-74
2021/10/25 05:43:10;;;;;;;4.32;2.30;;;6.40;99.90;;;;;;5063044;28;20378;-75
2021/10/25 05:45:36;;;;;;;6.93;2.65;;;6.40;99.90;;;;;;5070354;28;20036;-75
2021/10/25 05:48:03;;;;;;;6.60;2.50;;;6.40;99.90;;;;;;5064158;28;20386;-75
2021/10/25 05:50:29;;;;;;;4.22;2.13;;;6.40;99.90;;;;;;5065120;28;20029;-74
2021/10/25 05:52:55;;;;;;;5.78;2.90;;;6.30;99.90;;;;;;5064610;28;20485;-77
2021/10/25 05:55:23;;;;;;;5.40;2.45;;;6.20;99.90;;;;;;5064227;28;20024;-76
2021/10/25 05:57:51;;;;;;;6.43;2.58;;;6.30;99.90;;;;;;5064097;28;20127;-75
2021/10/25 06:00:20;;;;;;;5.88;2.28;;;6.30;99.90;;;;;;5063996;28;20043;-75
2021/10/25 06:02:52;;;;;;;4.57;2.30;;;6.30;99.90;;;;;;5046311;28;20371;-74
2021/10/25 06:05:18;;;;;;;6.65;2.50;;;6.40;99.90;;;;;;5064421;28;20872;-74
2021/10/25 06:07:43;;;;;;;5.03;2.30;;;6.50;99.90;;;;;;5064345;28;20036;-75
2021/10/25 06:10:13;;;;;;;4.63;2.28;;;6.50;99.90;;;;;;5072083;28;20012;-75
2021/10/25 06:12:42;;;;;;;4.88;2.38;;;6.60;99.90;;;;;;5064683;28;20055;-75
2021/10/25 06:15:16;;;;;;;4.05;2.13;;;6.70;99.90;;;;;;5063956;28;20017;-75
2021/10/25 06:17:56;;;;;;;5.63;2.90;;;6.70;99.90;;;;;;5064270;28;20017;-75
2021/10/25 06:20:24;;;;;;;5.95;2.80;;;6.70;99.90;;;;;;5064004;28;20028;-75
2021/10/25 06:22:50;;;;;;;4.90;2.10;;;6.70;99.90;;;;;;5064081;28;20020;-76
2021/10/25 06:25:17;;;;;;;4.20;1.90;;;6.60;99.90;;;;;;5064028;28;20085;-75
2021/10/25 06:27:46;;;;;;;4.80;2.55;;;6.70;99.90;;;;;;5051698;28;20021;-75
2021/10/25 06:30:12;;;;;;;5.63;2.03;;;6.70;99.90;;;;;;5043701;28;20048;-75
2021/10/25 06:32:38;;;;;;;6.95;2.47;;;6.80;99.90;;;;;;5042141;28;20505;-75
2021/10/25 06:35:06;;;;;;;6.45;3.13;;;6.90;99.90;;;;;;5042140;28;20021;-75
2021/10/25 06:37:49;;;;;;;6.97;2.80;;;6.70;99.90;;;;;;5042231;28;20017;-75
2021/10/25 06:40:20;;;;;;;9.00;2.78;;;6.60;99.90;;;;;;5042145;28;20017;-75
2021/10/25 06:42:47;;;;;;;6.40;2.42;;;6.60;99.90;;;;;;5042263;28;20033;-75
2021/10/25 06:45:15;;;;;;;6.57;3.28;;;6.40;99.90;;;;;;5042064;28;20088;-75
2021/10/25 06:47:42;;;;;;;4.53;2.47;;;6.50;99.90;;;;;;5043086;28;20032;-75
2021/10/25 06:50:09;;;;;;;5.95;2.65;;;6.60;99.90;;;;;;5043750;28;20032;-75
2021/10/25 06:52:35;;;;;;;4.95;2.55;;;6.70;99.90;;;;;;5043564;28;20082;-75
2021/10/25 06:55:01;;;;;;;6.00;2.85;;;6.80;99.90;;;;;;5043424;28;20043;-75
2021/10/25 06:57:26;;;;;;;5.20;2.75;;;7.00;99.90;;;;;;5043824;28;20057;-75
2021/10/25 06:59:53;;;;;;;3.83;2.03;;;7.00;99.90;;;;;;5043645;28;20067;-75
2021/10/25 07:02:20;;;;;;;6.55;2.72;;;7.00;99.90;;;;;;5043600;28;20025;-75
2021/10/25 07:04:47;;;;;;;6.15;2.80;;;7.00;99.90;;;;;;5043066;28;20115;-75
2021/10/25 07:07:13;;;;;;;5.47;2.55;;;7.00;99.90;;;;;;5047397;28;20032;-76
2021/10/25 07:09:39;;;;;;;4.85;2.30;;;7.00;99.90;;;;;;5063563;28;20016;-75
2021/10/25 07:12:06;;;;;;;5.70;2.90;;;6.90;99.90;;;;;;5045811;28;20518;-76
2021/10/25 07:14:36;;;;;;;9.75;2.80;;;6.90;99.90;;;;;;5047406;28;20021;-74
2021/10/25 08:11:02;;;;;;;6.88;3.10;;;8.00;99.90;;;;;;5046822;28;20470;-73
2021/10/25 08:13:33;;;;;;;5.78;2.88;;;8.10;99.90;;;;;;5046877;28;20127;-74
2021/10/25 08:16:08;;;;;;;6.40;3.13;;;8.20;99.90;;;;;;5046948;28;20045;-74
2021/10/25 08:18:55;;;;;;;6.30;3.38;;;8.30;99.90;;;;;;5047075;28;20107;-74
2021/10/25 08:21:21;;;;;;;5.93;3.38;;;8.40;99.90;;;;;;5046750;28;20092;-74
2021/10/25 08:23:48;;;;;;;8.00;3.30;;;8.50;99.90;;;;;;5028627;28;20103;-73
2021/10/25 08:26:14;;;;;;;53.17;6.75;;;8.60;99.90;;;;;;5046867;28;20036;-73
2021/10/25 08:28:40;;;;;;;10.60;3.67;;;8.50;99.90;;;;;;5048597;28;20378;-73
2021/10/25 08:31:08;;;;;;;8.80;3.80;;;8.50;99.90;;;;;;5046705;28;20115;-74
2021/10/25 08:36:22;;;;;;;8.43;4.18;;;8.70;99.90;;;;;;5044445;28;20463;-73
2021/10/25 08:41:34;;;;;;;7.40;3.47;;;8.70;99.90;;;;;;5045399;28;20044;-74
2021/10/25 08:44:04;;;;;;;9.85;4.93;;;8.70;99.90;;;;;;5044511;28;20589;-73
2021/10/25 08:46:30;;;;;;;7.78;3.95;;;8.80;99.90;;;;;;5044338;28;20013;-73
2021/10/25 08:48:56;;;;;;;6.50;3.28;;;8.90;99.90;;;;;;5045726;28;20036;-73
2021/10/25 08:51:26;;;;;;;5.15;3.08;;;8.90;99.90;;;;;;5046177;28;20032;-73
2021/10/25 08:53:52;;;;;;;5.30;2.90;;;8.90;99.90;;;;;;5046297;28;20025;-73
2021/10/25 08:56:18;;;;;;;8.57;3.75;;;8.90;99.90;;;;;;5045898;28;20033;-73
2021/10/25 08:58:46;;;;;;;5.13;2.78;;;9.00;99.90;;;;;;5045772;28;20053;-74
2021/10/25 09:01:26;;;;;;;5.75;3.45;;;9.20;99.90;;;;;;5046134;28;20045;-73
2021/10/25 09:04:11;;;;;;;4.18;2.30;;;9.30;99.90;;;;;;5045543;28;20029;-73
2021/10/25 09:06:49;;;;;;;6.78;2.17;;;9.50;98.90;;;;;;5046142;28;20021;-75
2021/10/25 09:09:15;;;;;;;14.82;2.42;;;9.40;98.40;;;;;;5045561;28;20602;-75
2021/10/25 09:11:58;;;;;;;8.15;3.15;;;9.60;98.30;;;;;;5045927;28;20057;-74
2021/10/25 09:14:24;;;;;;;15.40;4.88;;;9.80;98.30;;;;;;5045949;28;20029;-75
2021/10/25 09:17:04;;;;;;;16.05;5.13;;;9.70;99.80;;;;;;5045408;28;20037;-75
2021/10/25 09:19:32;;;;;;;9.25;4.43;;;9.50;99.90;;;;;;5045674;28;20027;-75
2021/10/25 09:22:11;;;;;;;11.55;4.32;;;9.50;99.90;;;;;;5045713;28;20032;-74
2021/10/25 09:24:38;;;;;;;11.02;4.78;;;9.50;99.90;;;;;;5045562;28;20036;-74
2021/10/25 09:27:08;;;;;;;6.55;3.63;;;9.40;99.90;;;;;;5045343;28;20684;-75
2021/10/25 09:29:37;;;;;;;7.45;3.78;;;9.40;99.90;;;;;;5044050;28;20047;-74
2021/10/25 09:32:15;;;;;;;7.57;4.60;;;9.60;99.70;;;;;;5027272;28;20977;-75
2021/10/25 09:34:52;;;;;;;8.18;3.78;;;9.50;98.90;;;;;;5043239;28;20017;-75
2021/10/25 09:37:23;;;;;;;7.80;4.53;;;9.70;99.10;;;;;;5043357;28;20025;-74
2021/10/25 09:39:55;;;;;;;8.75;3.70;;;9.90;99.20;;;;;;5043614;28;20025;-75
2021/10/25 09:45:56;;;;;;;5.32;3.35;;;10.00;99.20;;;;;;5042913;28;20048;-75
2021/10/25 09:51:07;;;;;;;7.72;3.50;;;10.20;99.80;;;;;;5044464;28;20044;-75
2021/10/25 09:53:43;;;;;;;7.50;3.50;;;10.30;99.40;;;;;;5044769;28;20029;-75
2021/10/25 09:59:46;;;;;;;20.80;4.43;;;10.40;99.30;;;;;;5043941;28;20036;-75
2021/10/25 10:02:09;;;;;;;6.60;3.40;;;10.30;99.10;;;;;;5044836;28;20439;-74
2021/10/25 10:04:35;;;;;;;11.38;3.65;;;10.20;98.00;;;;;;5043937;28;20048;-75
2021/10/25 10:07:02;;;;;;;6.82;3.53;;;10.40;98.30;;;;;;5061060;28;20378;-74
2021/10/25 10:09:27;;;;;;;20.00;5.25;;;10.50;98.10;;;;;;5063792;28;20055;-75
2021/10/25 10:11:55;;;;;;;6.43;3.83;;;10.60;98.30;;;;;;5064149;28;20080;-75
2021/10/25 10:14:23;;;;;;;7.00;3.25;;;10.60;97.80;;;;;;5063930;28;20073;-74
2021/10/25 10:16:49;;;;;;;5.72;3.20;;;10.40;97.10;;;;;;5066523;28;20032;-75
2021/10/25 10:19:23;;;;;;;5.55;3.10;;;10.50;97.10;;;;;;5064631;28;20133;-75
2021/10/25 10:22:03;;;;;;;7.43;2.90;;;10.50;97.10;;;;;;5063930;28;20211;-74
2021/10/25 10:24:34;;;;;;;8.13;3.13;;;10.60;96.70;;;;;;5064237;28;20028;-75
2021/10/25 10:27:04;;;;;;;5.68;2.65;;;10.70;96.60;;;;;;5060755;28;20025;-74
2021/10/25 10:29:41;;;;;;;6.32;2.45;;;10.80;96.40;;;;;;5043714;28;20076;-75
2021/10/25 10:32:15;;;;;;;6.68;3.50;;;10.80;96.60;;;;;;5041712;28;20041;-75
2021/10/25 10:34:43;;;;;;;7.35;2.88;;;10.70;96.10;;;;;;5042966;28;20033;-74
2021/10/25 10:37:30;;;;;;;6.00;2.60;;;10.70;96.20;;;;;;5042333;28;20022;-75
2021/10/25 10:40:06;;;;;;;13.10;3.25;;;10.90;96.20;;;;;;5042865;28;20563;-75
2021/10/25 10:42:33;;;;;;;11.02;3.35;;;10.90;96.10;;;;;;5042841;28;20029;-75
2021/10/25 10:45:04;;;;;;;6.82;3.00;;;11.00;96.20;;;;;;5042505;28;20036;-75
2021/10/25 10:48:07;;;;;;;16.08;2.75;;;10.90;95.30;;;;;;5042979;28;20064;-75
2021/10/25 10:53:17;;;;;;;4.43;2.80;;;11.00;95.00;;;;;;5063312;28;20119;-75
2021/10/25 10:55:44;;;;;;;5.25;2.40;;;11.00;95.20;;;;;;5045754;28;20109;-75
2021/10/25 10:58:39;;;;;;;6.55;2.88;;;11.00;95.10;;;;;;5043315;28;20044;-75
2021/10/25 11:01:07;;;;;;;19.42;4.88;;;11.10;95.00;;;;;;5045879;28;20017;-75
2021/10/25 11:03:35;;;;;;;6.82;2.80;;;10.90;94.60;;;;;;5046418;28;20028;-75
2021/10/25 11:06:10;;;;;;;6.15;2.67;;;11.00;94.90;;;;;;5046181;28;20020;-75
2021/10/25 11:08:35;;;;;;;;;;;11.10;95.20;;;;;;5045356;28;20116;-75
2021/10/25 11:11:16;;;;;;;10.38;7.38;;;11.20;95.00;;;;;;5045460;28;20061;-75
2021/10/25 11:14:02;;;;;;;7.00;3.38;;;11.30;95.30;;;;;;5044908;28;20104;-75
2021/10/25 11:16:51;;;;;;;5.80;3.78;;;11.40;95.90;;;;;;5044587;28;20052;-75
2021/10/25 11:19:17;;;;;;;73.20;47.08;;;11.40;95.10;;;;;;5044377;28;20104;-75
2021/10/25 11:21:53;;;;;;;20.73;5.15;;;11.50;95.30;;;;;;5044480;28;20124;-75
2021/10/25 11:24:21;;;;;;;5.70;3.00;;;11.60;95.50;;;;;;5044534;28;20029;-75
2021/10/25 11:26:50;;;;;;;4.60;2.50;;;11.60;95.00;;;;;;5045596;28;20114;-75
2021/10/25 11:29:31;;;;;;;6.38;2.90;;;11.60;95.00;;;;;;5046261;28;20348;-75
2021/10/25 11:32:00;;;;;;;7.00;3.00;;;11.60;95.10;;;;;;5045974;28;20021;-75
2021/10/25 11:34:31;;;;;;;6.40;3.22;;;11.50;95.20;;;;;;5046022;28;20032;-75
2021/10/25 11:37:20;;;;;;;5.50;2.80;;;11.60;95.40;;;;;;5044634;28;20367;-75
2021/10/25 11:42:25;;;;;;;9.63;4.85;;;11.70;95.20;;;;;;5045977;28;20418;-76
2021/10/25 11:44:53;;;;;;;6.68;3.60;;;11.70;95.60;;;;;;5045584;28;20044;-74
2021/10/25 11:47:24;;;;;;;10.35;3.65;;;11.70;95.00;;;;;;5042934;28;20078;-74
2021/10/25 11:49:53;;;;;;;34.97;18.38;;;11.70;95.20;;;;;;5042685;28;20407;-74
2021/10/25 11:52:19;;;;;;;362.30;203.20;;;11.70;95.30;;;;;;5042931;28;20383;-74
2021/10/25 11:54:51;;;;;;;63.58;34.10;;;11.70;95.20;;;;;;5043164;28;20033;-74
2021/10/25 11:57:18;;;;;;;92.22;50.70;;;11.80;95.30;;;;;;5044145;28;20039;-74
2021/10/25 11:59:58;;;;;;;27.50;16.98;;;11.80;95.60;;;;;;5046723;28;20129;-74
2021/10/25 12:02:25;;;;;;;12.95;5.65;;;11.90;95.70;;;;;;5046678;28;20025;-74
2021/10/25 12:04:52;;;;;;;6.90;2.95;;;11.90;95.40;;;;;;5046323;28;20048;-74
2021/10/25 12:07:19;;;;;;;6.70;3.13;;;12.00;95.30;;;;;;5047197;28;20053;-74
2021/10/25 12:09:46;;;;;;;6.05;2.80;;;12.00;95.00;;;;;;5049031;28;20122;-74
2021/10/25 12:12:16;;;;;;;7.68;3.97;;;11.90;95.00;;;;;;5045498;28;20995;-74
2021/10/25 12:14:45;;;;;;;6.65;3.78;;;11.90;94.90;;;;;;5044932;28;20025;-74
2021/10/25 12:17:18;;;;;;;5.97;3.47;;;12.00;95.20;;;;;;5044511;28;20102;-74
2021/10/25 12:19:45;;;;;;;61.72;41.80;;;11.90;94.50;;;;;;5044633;28;20056;-74
2021/10/25 12:22:19;;;;;;;16.08;11.15;;;12.00;94.80;;;;;;5044468;28;20036;-74
2021/10/25 12:24:52;;;;;;;19.70;12.18;;;12.00;94.90;;;;;;5044346;28;20040;-74
2021/10/25 12:27:25;;;;;;;9.57;4.55;;;12.10;95.20;;;;;;5045779;28;20130;-74
2021/10/25 12:30:11;;;;;;;8.23;4.15;;;12.10;95.20;;;;;;5045608;28;20025;-74
2021/10/25 12:32:49;;;;;;;6.95;3.28;;;12.00;94.80;;;;;;5046128;28;20029;-74
2021/10/25 12:35:15;;;;;;;10.48;3.55;;;12.00;95.00;;;;;;5045796;28;20061;-74
2021/10/25 12:37:41;;;;;;;8.88;2.85;;;12.10;95.50;;;;;;5045895;28;20052;-73
2021/10/25 12:40:18;;;;;;;8.45;3.28;;;12.00;94.60;;;;;;5045437;28;20068;-74
2021/10/25 12:42:46;;;;;;;8.23;3.50;;;12.00;94.60;;;;;;5045990;28;20908;-74
2021/10/25 12:45:18;;;;;;;6.60;2.55;;;12.00;94.90;;;;;;5045670;28;20120;-74
2021/10/25 12:47:45;;;;;;;10.35;4.75;;;12.00;94.90;;;;;;5045566;28;20116;-74
2021/10/25 12:50:15;;;;;;;23.08;13.48;;;12.00;94.80;;;;;;5045259;28;20025;-74
2021/10/25 12:52:44;;;;;;;7.45;3.80;;;12.10;95.60;;;;;;5045590;28;20035;-74
2021/10/25 12:55:10;;;;;;;10.35;5.53;;;12.20;95.50;;;;;;5045668;28;20021;-73
2021/10/25 12:57:39;;;;;;;12.63;4.93;;;12.20;95.60;;;;;;5045511;28;20040;-74
2021/10/25 13:00:11;;;;;;;6.82;3.55;;;12.10;95.60;;;;;;5045676;28;20035;-74
2021/10/25 13:02:47;;;;;;;7.85;3.17;;;12.00;94.80;;;;;;5045476;28;20051;-74
2021/10/25 13:05:16;;;;;;;15.90;7.63;;;12.00;95.10;;;;;;5045288;28;20040;-74
2021/10/25 13:07:56;;;;;;;8.65;5.22;;;12.00;95.10;;;;;;5045204;28;20108;-74
2021/10/25 13:10:25;;;;;;;6.75;3.85;;;12.10;95.30;;;;;;5057274;28;20032;-74
2021/10/25 13:12:52;;;;;;;6.22;3.33;;;12.00;94.80;;;;;;5065815;28;20446;-74
2021/10/25 13:15:20;;;;;;;14.75;6.40;;;12.00;94.70;;;;;;5064600;28;20104;-74
2021/10/25 13:17:46;;;;;;;17.38;7.43;;;11.90;95.30;;;;;;5065666;28;20028;-73
2021/10/25 13:20:17;;;;;;;10.23;3.80;;;12.00;95.70;;;;;;5065346;28;20032;-74
2021/10/25 13:22:44;;;;;;;39.83;5.53;;;12.00;95.20;;;;;;5065539;28;20090;-74
2021/10/25 13:25:10;;;;;;;13.63;4.07;;;12.10;95.30;;;;;;5065267;28;20036;-74
2021/10/25 13:27:37;;;;;;;5.85;3.97;;;12.10;95.30;;;;;;5065163;28;20039;-74
2021/10/25 13:30:05;;;;;;;9.68;4.10;;;12.10;95.10;;;;;;5065067;28;20409;-74
2021/10/25 13:32:31;;;;;;;14.77;3.83;;;12.00;95.20;;;;;;5065963;28;20075;-74
2021/10/25 13:34:57;;;;;;;18.20;4.55;;;12.10;95.20;;;;;;5065373;28;20024;-74
2021/10/25 13:37:23;;;;;;;5.72;3.13;;;12.10;95.30;;;;;;5065051;28;20024;-74
2021/10/25 13:39:48;;;;;;;6.80;3.95;;;12.00;95.40;;;;;;5065310;28;20020;-74
2021/10/25 13:42:15;;;;;;;7.35;3.28;;;12.10;95.20;;;;;;5065209;28;20035;-74
2021/10/25 13:44:42;;;;;;;6.53;3.30;;;12.00;95.20;;;;;;5064868;28;20090;-74
2021/10/25 13:47:08;;;;;;;7.43;4.18;;;12.10;95.30;;;;;;5065075;28;20020;-74
2021/10/25 13:49:34;;;;;;;11.93;4.03;;;12.10;95.20;;;;;;5065118;28;20020;-74
2021/10/25 13:52:00;;;;;;;10.30;3.80;;;12.10;95.60;;;;;;5065046;28;20375;-74
2021/10/25 13:54:27;;;;;;;5.47;3.25;;;12.10;95.60;;;;;;5064876;28;20056;-74
2021/10/25 13:56:53;;;;;;;11.05;3.88;;;12.10;95.50;;;;;;5064635;28;20023;-74
2021/10/25 13:59:19;;;;;;;10.07;3.67;;;12.00;95.40;;;;;;5064653;28;20020;-74
2021/10/25 14:01:44;;;;;;;6.80;3.42;;;12.00;95.40;;;;;;5064922;28;20093;-74
2021/10/25 14:04:15;;;;;;;7.40;3.65;;;12.00;95.60;;;;;;5064753;28;20905;-74
2021/10/25 14:06:41;;;;;;;12.70;5.75;;;12.00;95.30;;;;;;5064985;28;20067;-74
2021/10/25 14:09:06;;;;;;;8.95;4.10;;;12.00;95.40;;;;;;5060646;28;20033;-74
2021/10/25 14:11:38;;;;;;;12.90;4.85;;;12.00;95.20;;;;;;5064182;28;20049;-74
2021/10/25 14:14:38;;;;;;;10.75;3.50;;;11.90;95.20;;;;;;5063187;28;20024;-74
2021/10/25 14:16:56;;;;;;;8.75;3.50;;;12.00;95.60;;;;;;5060366;28;20486;-74
2021/10/25 14:19:28;;;;;;;11.68;4.10;;;11.90;95.10;;;;;;5062973;28;20059;-74
2021/10/25 14:21:55;;;;;;;9.48;3.70;;;12.00;95.10;;;;;;5044028;28;20028;-74
2021/10/25 14:24:22;;;;;;;8.85;3.35;;;12.00;95.60;;;;;;5061856;28;20035;-74
2021/10/25 14:26:50;;;;;;;7.82;4.55;;;12.00;95.40;;;;;;5062283;28;20984;-74
2021/10/25 14:29:16;;;;;;;7.30;3.58;;;12.00;95.50;;;;;;5063877;28;20028;-74
2021/10/25 14:31:45;;;;;;;8.98;3.92;;;12.00;95.60;;;;;;5064610;28;20031;-74
2021/10/25 14:34:13;;;;;;;15.48;5.95;;;12.10;96.40;;;;;;5064644;28;20089;-74
2021/10/25 14:36:41;;;;;;;10.35;4.45;;;12.10;96.40;;;;;;5064430;28;20032;-74
2021/10/25 14:39:28;;;;;;;11.20;5.82;;;12.00;96.30;;;;;;5064322;28;20020;-74
2021/10/25 14:42:09;;;;;;;11.10;6.00;;;12.00;96.40;;;;;;5064115;28;20027;-74
2021/10/25 14:57:24;;;;;;;7.05;3.50;;;12.00;96.40;;;;;;5063735;28;20028;-74
2021/10/25 14:59:51;;;;;;;9.48;5.05;;;12.00;96.80;;;;;;5063857;28;20025;-74
2021/10/25 15:02:18;;;;;;;7.25;3.40;;;12.00;97.20;;;;;;5063979;28;20175;-74
2021/10/25 15:04:45;;;;;;;9.52;3.10;;;11.90;97.30;;;;;;5063927;28;20120;-74